Time;durP1;ratioP1;P1;durP2;ratioP2;P2;SDS_P1;SDS_P2;PMS_P1;PMS_P2;Temp;Humidity;BMP_temperature;BMP_pressure;BME280_temperature;BME280_humidity;BME280_pressure;Samples;Min_cycle;Max_cycle;Signal;HPM_P1;HPM_P2
2023/03/30 00:00:22;;;;;;;;;;;;;;;;;;4995305;28;7055;-67
2023/03/30 00:03:03;;;;;;;;;;;;;;;;;;4995694;28;7118;-67
2023/03/30 00:05:29;;;;;;;;;;;;;;;;;;4996214;28;6945;-66
2023/03/30 00:07:55;;;;;;;;;;;;;;;;;;4996474;28;7187;-66
2023/03/30 00:10:21;;;;;;;;;;;;;;;;;;4995549;28;7215;-66
2023/03/30 00:12:49;;;;;;;;;;;;;;;;;;4996452;28;7006;-67
2023/03/30 00:15:17;;;;;;;;;;;;;;;;;;4995516;28;6961;-67
2023/03/30 00:17:53;;;;;;;;;;;;;;;;;;4995061;28;7185;-67
2023/03/30 00:20:20;;;;;;;;;;;;;;;;;;4995508;28;6937;-67
2023/03/30 00:22:46;;;;;;;;;;;;;;;;;;4996045;28;7087;-66
2023/03/30 00:25:33;;;;;;;;;;;;;;;;;;4996031;28;7136;-66
2023/03/30 00:27:58;;;;;;;;;;;;;;;;;;4995086;28;7174;-67
2023/03/30 00:30:24;;;;;;;;;;;;;;;;;;4995921;28;7349;-67
2023/03/30 00:32:50;;;;;;;;;;;;;;;;;;4994963;28;6980;-67
2023/03/30 00:35:18;;;;;;;;;;;;;;;;;;4995034;28;7646;-66
2023/03/30 00:37:44;;;;;;;;;;;;;;;;;;4995355;28;7159;-66
2023/03/30 00:40:15;;;;;;;;;;;;;;;;;;4994920;28;6997;-66
2023/03/30 00:42:41;;;;;;;;;;;;;;;;;;4995799;28;7463;-67
2023/03/30 00:48:16;;;;;;;;;;;;;;;;;;4994865;28;6681;-66
2023/03/30 00:50:49;;;;;;;;;;;;;;;;;;4995201;28;7218;-67
2023/03/30 00:53:37;;;;;;;;;;;;;;;;;;4994965;28;6975;-67
2023/03/30 00:56:06;;;;;;;;;;;;;;;;;;4996117;28;6957;-67
2023/03/30 00:58:34;;;;;;;;;;;;;;;;;;4995417;28;7266;-67
2023/03/30 01:01:09;;;;;;;;;;;;;;;;;;4995019;28;6838;-67
2023/03/30 01:03:38;;;;;;;;;;;;;;;;;;4995823;28;7266;-66
2023/03/30 01:06:06;;;;;;;;;;;;;;;;;;4995464;28;7357;-67
2023/03/30 01:11:34;;;;;;;;;;;;;;;;;;4995071;28;6687;-67
2023/03/30 01:17:38;;;;;;;;;;;;;;;;;;4994863;28;6695;-67
2023/03/30 01:23:29;;;;;;;;;;;;;;;;;;4995538;28;7021;-67
2023/03/30 01:26:00;;;;;;;;;;;;;;;;;;4994909;28;7028;-66
2023/03/30 01:34:32;;;;;;;;;;;;;;;;;;4998205;28;7006;-67
2023/03/30 01:37:00;;;;;;;;;;;;;;;;;;4998219;28;7217;-67
2023/03/30 01:45:41;;;;;;;;;;;;;;;;;;4999072;28;7133;-67
2023/03/30 01:51:14;;;;;;;;;;;;;;;;;;4997669;28;7036;-67
2023/03/30 01:53:43;;;;;;;;;;;;;;;;;;4998191;28;7028;-67
2023/03/30 02:02:45;;;;;;;;;;;;;;;;;;4997709;28;6850;-67
2023/03/30 02:08:23;;;;;;;;;;;;;;;;;;4997749;28;6697;-67
2023/03/30 02:13:54;;;;;;;;;;;;;;;;;;4997527;28;6930;-67
2023/03/30 02:16:55;;;;;;;;;;;;;;;;;;4997718;28;6955;-66
2023/03/30 02:19:21;;;;;;;;;;;;;;;;;;4997595;28;7221;-67
2023/03/30 02:21:47;;;;;;;;;;;;;;;;;;4997339;28;7149;-67
2023/03/30 02:27:46;;;;;;;;;;;;;;;;;;4997182;28;6688;-67
2023/03/30 02:30:12;;;;;;;;;;;;;;;;;;4997269;28;7187;-65
2023/03/30 02:32:43;;;;;;;;;;;;;;;;;;4997344;28;7120;-67
2023/03/30 02:38:31;;;;;;;;;;;;;;;;;;4997244;28;6808;-67
2023/03/30 02:44:15;;;;;;;;;;;;;;;;;;4997170;28;6934;-67
2023/03/30 02:46:46;;;;;;;;;;;;;;;;;;4997148;28;7161;-67
2023/03/30 02:55:28;;;;;;;;;;;;;;;;;;4996976;28;7000;-67
2023/03/30 02:58:02;;;;;;;;;;;;;;;;;;4996983;28;7392;-67
2023/03/30 03:00:31;;;;;;;;;;;;;;;;;;4979397;28;7019;-67
2023/03/30 03:03:02;;;;;;;;;;;;;;;;;;4996879;28;6937;-67
2023/03/30 03:05:28;;;;;;;;;;;;;;;;;;4997178;28;7237;-67
2023/03/30 03:08:14;;;;;;;;;;;;;;;;;;4996604;28;7273;-67
2023/03/30 03:10:40;;;;;;;;;;;;;;;;;;4997233;28;6944;-67
2023/03/30 03:13:07;;;;;;;;;;;;;;;;;;4996505;28;7123;-67
2023/03/30 03:15:44;;;;;;;;;;;;;;;;;;4996720;28;8235;-67
2023/03/30 03:18:11;;;;;;;;;;;;;;;;;;4996253;28;7231;-67
2023/03/30 03:20:37;;;;;;;;;;;;;;;;;;4996388;28;7211;-67
2023/03/30 03:23:03;;;;;;;;;;;;;;;;;;4996470;28;7032;-67
2023/03/30 03:25:29;;;;;;;;;;;;;;;;;;4996308;28;7016;-67
2023/03/30 03:27:57;;;;;;;;;;;;;;;;;;4996403;28;7280;-67
2023/03/30 03:30:23;;;;;;;;;;;;;;;;;;4996232;28;7278;-67
2023/03/30 03:32:49;;;;;;;;;;;;;;;;;;4996158;28;6990;-67
2023/03/30 03:35:16;;;;;;;;;;;;;;;;;;4996290;28;7468;-67
2023/03/30 03:37:41;;;;;;;;;;;;;;;;;;4995874;28;6943;-67
2023/03/30 03:40:30;;;;;;;;;;;;;;;;;;4996709;28;7186;-67
2023/03/30 03:42:55;;;;;;;;;;;;;;;;;;4996087;28;7616;-67
2023/03/30 03:45:21;;;;;;;;;;;;;;;;;;4996240;28;6909;-67
2023/03/30 03:48:14;;;;;;;;;;;;;;;;;;4996721;28;7144;-67
2023/03/30 03:50:40;;;;;;;;;;;;;;;;;;4996495;28;6838;-67
2023/03/30 03:53:06;;;;;;;;;;;;;;;;;;4995675;28;6971;-67
2023/03/30 03:55:34;;;;;;;;;;;;;;;;;;4995823;28;7249;-67
2023/03/30 03:58:07;;;;;;;;;;;;;;;;;;4995428;28;6940;-67
2023/03/30 04:00:33;;;;;;;;;;;;;;;;;;4995254;28;7360;-67
2023/03/30 04:02:59;;;;;;;;;;;;;;;;;;4995884;28;7068;-67
2023/03/30 04:05:25;;;;;;;;;;;;;;;;;;4996371;28;6939;-67
2023/03/30 04:07:52;;;;;;;;;;;;;;;;;;4995576;28;7169;-67
2023/03/30 04:10:20;;;;;;;;;;;;;;;;;;4995627;28;7082;-67
2023/03/30 04:13:05;;;;;;;;;;;;;;;;;;4996304;28;8328;-67
2023/03/30 04:15:31;;;;;;;;;;;;;;;;;;4996198;28;6972;-67
2023/03/30 04:17:57;;;;;;;;;;;;;;;;;;4995094;28;6949;-67
2023/03/30 04:20:26;;;;;;;;;;;;;;;;;;4996047;28;7338;-67
2023/03/30 04:22:53;;;;;;;;;;;;;;;;;;4995501;28;7023;-67
2023/03/30 04:25:24;;;;;;;;;;;;;;;;;;4995072;28;7028;-67
2023/03/30 04:27:54;;;;;;;;;;;;;;;;;;4995442;28;7013;-67
2023/03/30 04:33:33;;;;;;;;;;;;;;;;;;4995155;28;7403;-67
2023/03/30 04:35:59;;;;;;;;;;;;;;;;;;4995328;28;7324;-67
2023/03/30 04:38:31;;;;;;;;;;;;;;;;;;4995547;28;7345;-67
2023/03/30 04:41:14;;;;;;;;;;;;;;;;;;4995276;28;7037;-66
2023/03/30 04:43:39;;;;;;;;;;;;;;;;;;4995359;28;7215;-67
2023/03/30 04:46:05;;;;;;;;;;;;;;;;;;4995315;28;6933;-63
2023/03/30 04:48:41;;;;;;;;;;;;;;;;;;4995173;28;7384;-67
2023/03/30 04:51:06;;;;;;;;;;;;;;;;;;4995751;28;7084;-67
2023/03/30 04:53:32;;;;;;;;;;;;;;;;;;4995234;28;7157;-67
2023/03/30 04:55:57;;;;;;;;;;;;;;;;;;4995274;28;7023;-67
2023/03/30 05:01:45;;;;;;;;;;;;;;;;;;4916694;29;6973;-67
2023/03/30 05:07:14;;;;;;;;;;;;;;;;;;4919743;29;6997;-67
2023/03/30 05:09:45;;;;;;;;;;;;;;;;;;4911492;29;7225;-67
2023/03/30 05:12:11;;;;;;;;;;;;;;;;;;4901257;29;7128;-67
2023/03/30 05:14:37;;;;;;;;;;;;;;;;;;4900908;29;7118;-67
2023/03/30 05:17:03;;;;;;;;;;;;;;;;;;4900683;29;7070;-66
2023/03/30 05:22:31;;;;;;;;;;;;;;;;;;4901160;29;6707;-62
2023/03/30 05:25:20;;;;;;;;;;;;;;;;;;4901561;29;7121;-71
2023/03/30 05:27:46;;;;;;;;;;;;;;;;;;4900721;29;7124;-67
2023/03/30 05:30:11;;;;;;;;;;;;;;;;;;4900727;29;7153;-67
2023/03/30 05:32:54;;;;;;;;;;;;;;;;;;4943424;28;7103;-65
2023/03/30 05:35:23;;;;;;;;;;;;;;;;;;4978846;28;6956;-65
2023/03/30 05:38:21;;;;;;;;;;;;;;;;;;4979143;28;6960;-66
2023/03/30 05:40:51;;;;;;;;;;;;;;;;;;4978744;28;7246;-67
2023/03/30 05:43:28;;;;;;;;;;;;;;;;;;5145074;23;6918;-67
2023/03/30 05:45:54;;;;;;;;;;;;;;;;;;4975467;28;7373;-66
2023/03/30 05:48:31;;;;;;;;;;;;;;;;;;4975575;28;7134;-66
2023/03/30 05:50:57;;;;;;;;;;;;;;;;;;4964209;28;7139;-66
2023/03/30 05:53:22;;;;;;;;;;;;;;;;;;5109079;23;7561;-66
2023/03/30 05:58:51;;;;;;;;;;;;;;;;;;4977973;28;6912;-66
2023/03/30 06:04:19;;;;;;;;;;;;;;;;;;4977994;28;6704;-66
2023/03/30 06:07:06;;;;;;;;;;;;;;;;;;4980357;28;7011;-66
2023/03/30 06:09:32;;;;;;;;;;;;;;;;;;4997662;28;8271;-66
2023/03/30 06:14:25;;;;;;;;;;;;;;;;;;5015728;28;6934;-69
2023/03/30 06:19:54;;;;;;;;;;;;;;;;;;5017123;28;6941;-69
2023/03/30 06:22:33;;;;;;;;;;;;;;;;;;5017461;28;6993;-69
2023/03/30 06:24:59;;;;;;;;;;;;;;;;;;4999592;28;8454;-69
2023/03/30 06:30:28;;;;;;;;;;;;;;;;;;5016729;28;6936;-69
2023/03/30 06:33:07;;;;;;;;;;;;;;;;;;5016712;28;6986;-69
2023/03/30 06:35:32;;;;;;;;;;;;;;;;;;5016939;28;7618;-69
2023/03/30 06:37:58;;;;;;;;;;;;;;;;;;5016566;28;7317;-69
2023/03/30 06:40:24;;;;;;;;;;;;;;;;;;5016878;28;6944;-69
2023/03/30 06:42:50;;;;;;;;;;;;;;;;;;5016983;28;6940;-70
2023/03/30 06:45:16;;;;;;;;;;;;;;;;;;5016927;28;7409;-70
2023/03/30 06:48:01;;;;;;;;;;;;;;;;;;5016794;28;6800;-70
2023/03/30 06:50:27;;;;;;;;;;;;;;;;;;5016327;28;7273;-70
2023/03/30 06:52:53;;;;;;;;;;;;;;;;;;5016433;28;7108;-70
2023/03/30 06:57:44;;;;;;;;;;;;;;;;;;5073329;23;6748;-66
2023/03/30 07:03:07;;;;;;;;;;;;;;;;;;5016832;28;6994;-66
2023/03/30 07:05:55;;;;;;;;;;;;;;;;;;5016577;28;7145;-66
2023/03/30 07:08:20;;;;;;;;;;;;;;;;;;5016462;28;7176;-66
2023/03/30 07:10:47;;;;;;;;;;;;;;;;;;5016237;28;7037;-66
2023/03/30 07:13:30;;;;;;;;;;;;;;;;;;5016383;28;7140;-67
2023/03/30 07:15:56;;;;;;;;;;;;;;;;;;5016999;28;7144;-66
2023/03/30 07:18:22;;;;;;;;;;;;;;;;;;5016609;28;7010;-66
2023/03/30 07:21:03;;;;;;;;;;;;;;;;;;5016325;28;7079;-67
2023/03/30 07:23:28;;;;;;;;;;;;;;;;;;5015979;28;7152;-66
2023/03/30 07:28:57;;;;;;;;;;;;;;;;;;5029216;28;7050;-66
2023/03/30 07:31:23;;;;;;;;;;;;;;;;;;5035659;28;7208;-66
2023/03/30 07:33:49;;;;;;;;;;;;;;;;;;5035619;28;7253;-67
2023/03/30 07:36:29;;;;;;;;;;;;;;;;;;5035696;28;7246;-66
2023/03/30 07:38:55;;;;;;;;;;;;;;;;;;5035487;28;6982;-67
2023/03/30 07:41:20;;;;;;;;;;;;;;;;;;5035546;28;7368;-66
2023/03/30 07:43:46;;;;;;;;;;;;;;;;;;5035103;28;7939;-66
2023/03/30 07:46:12;;;;;;;;;;;;;;;;;;5036544;28;7013;-66
2023/03/30 07:49:06;;;;;;;;;;;;;;;;;;5035736;28;7023;-66
2023/03/30 07:51:33;;;;;;;;;;;;;;;;;;5035332;28;7216;-66
2023/03/30 07:53:59;;;;;;;;;;;;;;;;;;5035801;28;7584;-66
2023/03/30 07:56:25;;;;;;;;;;;;;;;;;;5034606;28;7289;-66
2023/03/30 08:02:20;;;;;;;;;;;;;;;;;;5034927;28;6709;-66
2023/03/30 08:04:45;;;;;;;;;;;;;;;;;;5034978;28;7847;-66
2023/03/30 08:07:11;;;;;;;;;;;;;;;;;;5034722;28;7179;-66
2023/03/30 08:09:50;;;;;;;;;;;;;;;;;;5032085;28;7193;-65
2023/03/30 08:12:15;;;;;;;;;;;;;;;;;;5034907;28;7198;-66
2023/03/30 08:15:05;;;;;;;;;;;;;;;;;;5045123;28;7223;-66
2023/03/30 08:17:30;;;;;;;;;;;;;;;;;;5054539;28;7211;-66
2023/03/30 08:22:58;;;;;;;;;;;;;;;;;;5034802;28;6680;-65
2023/03/30 08:25:45;;;;;;;;;;;;;;;;;;5034898;28;7115;-66
2023/03/30 08:28:10;;;;;;;;;;;;;;;;;;5034793;28;7124;-65
2023/03/30 08:30:45;;;;;;;;;;;;;;;;;;5034414;28;7169;-64
2023/03/30 08:33:12;;;;;;;;;;;;;;;;;;5035255;28;7184;-65
2023/03/30 08:38:31;;;;;;;;;;;;;;;;;;5034226;28;7120;-65
2023/03/30 08:44:02;;;;;;;;;;;;;;;;;;5038597;28;6935;-65
2023/03/30 08:46:29;;;;;;;;;;;;;;;;;;5038807;28;7296;-65
2023/03/30 08:48:59;;;;;;;;;;;;;;;;;;5038747;28;7178;-65
2023/03/30 08:51:58;;;;;;;;;;;;;;;;;;5038752;28;7060;-65
2023/03/30 08:54:27;;;;;;;;;;;;;;;;;;5038395;28;7224;-65
2023/03/30 08:56:52;;;;;;;;;;;;;;;;;;5027205;28;7474;-65
2023/03/30 08:59:18;;;;;;;;;;;;;;;;;;5018325;28;7146;-65
2023/03/30 09:01:46;;;;;;;;;;;;;;;;;;5018813;28;7209;-65
2023/03/30 09:04:28;;;;;;;;;;;;;;;;;;5019371;28;7435;-65
2023/03/30 09:06:57;;;;;;;;;;;;;;;;;;5018791;28;7227;-65
2023/03/30 09:09:26;;;;;;;;;;;;;;;;;;5001661;28;7299;-65
2023/03/30 09:12:13;;;;;;;;;;;;;;;;;;4998997;28;7241;-66
2023/03/30 09:14:49;;;;;;;;;;;;;;;;;;4998680;28;7141;-65
2023/03/30 09:17:41;;;;;;;;;;;;;;;;;;4998610;28;7193;-65
2023/03/30 09:20:36;;;;;;;;;;;;;;;;;;4998782;28;6969;-64
2023/03/30 09:23:03;;;;;;;;;;;;;;;;;;4998464;28;7056;-69
2023/03/30 09:26:01;;;;;;;;;;;;;;;;;;4998680;28;7251;-69
2023/03/30 09:28:47;;;;;;;;;;;;;;;;;;4998869;28;7177;-69
2023/03/30 09:31:15;;;;;;;;;;;;;;;;;;4998723;28;6911;-69
2023/03/30 09:34:07;;;;;;;;;;;;;;;;;;4998443;28;7426;-69
2023/03/30 09:36:52;;;;;;;;;;;;;;;;;;4998297;28;7167;-69
2023/03/30 09:39:37;;;;;;;;;;;;;;;;;;4998302;28;7221;-69
2023/03/30 09:42:03;;;;;;;;;;;;;;;;;;4998063;28;7224;-69
2023/03/30 09:44:35;;;;;;;;;;;;;;;;;;4997964;28;7142;-69
2023/03/30 09:47:01;;;;;;;;;;;;;;;;;;4998205;28;6938;-69
2023/03/30 09:49:28;;;;;;;;;;;;;;;;;;4998177;28;7053;-70
2023/03/30 09:55:01;;;;;;;;;;;;;;;;;;4997832;28;6690;-70
2023/03/30 09:57:57;;;;;;;;;;;;;;;;;;5012732;28;7198;-69
2023/03/30 10:00:26;;;;;;;;;;;;;;;;;;5017223;28;7750;-69
2023/03/30 10:05:28;;;;;;;;;;;;;;;;;;5262958;23;6747;-68
2023/03/30 10:10:59;;;;;;;;;;;;;;;;;;5017282;28;6699;-69
2023/03/30 10:13:56;;;;;;;;;;;;;;;;;;5017691;28;8006;-69
2023/03/30 10:16:28;;;;;;;;;;;;;;;;;;5017260;28;6842;-71
2023/03/30 10:18:58;;;;;;;;;;;;;;;;;;5016795;28;6953;-71
2023/03/30 10:24:30;;;;;;;;;;;;;;;;;;5016834;28;7036;-71
2023/03/30 10:27:08;;;;;;;;;;;;;;;;;;5017469;28;7150;-71
2023/03/30 10:32:30;;;;;;;;;;;;;;;;;;5016994;28;7100;-72
2023/03/30 10:35:00;;;;;;;;;;;;;;;;;;5016993;28;6966;-71
2023/03/30 10:37:31;;;;;;;;;;;;;;;;;;5017652;28;6972;-71
2023/03/30 10:40:00;;;;;;;;;;;;;;;;;;5016578;28;7244;-71
2023/03/30 10:42:39;;;;;;;;;;;;;;;;;;5016846;28;7381;-71
2023/03/30 10:45:05;;;;;;;;;;;;;;;;;;5016700;28;6837;-71
2023/03/30 10:50:34;;;;;;;;;;;;;;;;;;5016672;28;7567;-71
2023/03/30 10:53:12;;;;;;;;;;;;;;;;;;5016694;28;7032;-71
2023/03/30 10:56:10;;;;;;;;;;;;;;;;;;5016544;28;6923;-71
2023/03/30 10:58:54;;;;;;;;;;;;;;;;;;5016262;28;7378;-71
2023/03/30 11:10:37;;;;;;;;;;;;;;;;;;5016122;28;6908;-71
2023/03/30 11:13:23;;;;;;;;;;;;;;;;;;5015847;28;6948;-71
2023/03/30 11:15:54;;;;;;;;;;;;;;;;;;5015933;28;6970;-71
2023/03/30 11:18:27;;;;;;;;;;;;;;;;;;5016241;28;7253;-71
2023/03/30 11:21:00;;;;;;;;;;;;;;;;;;5016541;28;6964;-71
2023/03/30 11:23:44;;;;;;;;;;;;;;;;;;5016289;28;6936;-71
2023/03/30 11:26:14;;;;;;;;;;;;;;;;;;5016536;28;7015;-71
2023/03/30 11:29:00;;;;;;;;;;;;;;;;;;5015872;28;6992;-71
2023/03/30 11:31:48;;;;;;;;;;;;;;;;;;5015815;28;7533;-71
2023/03/30 11:34:25;;;;;;;;;;;;;;;;;;5016196;28;7137;-71
2023/03/30 11:36:51;;;;;;;;;;;;;;;;;;5015216;28;7243;-71
2023/03/30 11:39:31;;;;;;;;;;;;;;;;;;5015600;28;7101;-71
2023/03/30 11:42:23;;;;;;;;;;;;;;;;;;5015715;28;6920;-71
2023/03/30 11:44:52;;;;;;;;;;;;;;;;;;5014844;28;7035;-71
2023/03/30 11:50:51;;;;;;;;;;;;;;;;;;5015129;28;7449;-71
2023/03/30 11:53:40;;;;;;;;;;;;;;;;;;5001225;28;7275;-71
2023/03/30 11:56:08;;;;;;;;;;;;;;;;;;5015894;28;7297;-71
2023/03/30 11:58:41;;;;;;;;;;;;;;;;;;5015329;28;7069;-70
2023/03/30 12:01:28;;;;;;;;;;;;;;;;;;5015457;28;7046;-71
2023/03/30 12:04:00;;;;;;;;;;;;;;;;;;5015219;28;7420;-71
2023/03/30 12:12:54;;;;;;;;;;;;;;;;;;5014934;28;6982;-70
2023/03/30 12:15:28;;;;;;;;;;;;;;;;;;5015308;28;7397;-71
2023/03/30 12:18:03;;;;;;;;;;;;;;;;;;5015606;28;7043;-71
2023/03/30 12:20:40;;;;;;;;;;;;;;;;;;5015155;28;7022;-70
2023/03/30 12:29:05;;;;;;;;;;;;;;;;;;5015459;28;6742;-71
2023/03/30 12:31:49;;;;;;;;;;;;;;;;;;5014885;28;7062;-71
2023/03/30 12:34:15;;;;;;;;;;;;;;;;;;5015556;28;7266;-70
2023/03/30 12:39:49;;;;;;;;;;;;;;;;;;5014975;28;6749;-70
2023/03/30 12:44:57;;;;;;;;;;;;;;;;;;5015534;28;6982;-70
2023/03/30 12:47:32;;;;;;;;;;;;;;;;;;5014941;28;6881;-70
2023/03/30 12:53:00;;;;;;;;;;;;;;;;;;5014776;28;6826;-70
2023/03/30 12:55:26;;;;;;;;;;;;;;;;;;5014527;28;7255;-71
2023/03/30 12:58:26;;;;;;;;;;;;;;;;;;5014602;28;7372;-71
2023/03/30 13:00:54;;;;;;;;;;;;;;;;;;5015569;28;7162;-71
2023/03/30 13:03:29;;;;;;;;;;;;;;;;;;5014183;28;8414;-70
2023/03/30 13:06:17;;;;;;;;;;;;;;;;;;5013108;28;7276;-71
2023/03/30 13:08:42;;;;;;;;;;;;;;;;;;4977150;28;7251;-70
2023/03/30 13:11:12;;;;;;;;;;;;;;;;;;4994699;28;7198;-71
2023/03/30 13:13:46;;;;;;;;;;;;;;;;;;4994784;28;7217;-71
2023/03/30 13:16:40;;;;;;;;;;;;;;;;;;4994948;28;7066;-70
2023/03/30 13:19:14;;;;;;;;;;;;;;;;;;4994523;28;8771;-70
2023/03/30 13:22:12;;;;;;;;;;;;;;;;;;4994643;28;7480;-70
2023/03/30 13:28:09;;;;;;;;;;;;;;;;;;4996678;28;7171;-71
2023/03/30 13:30:38;;;;;;;;;;;;;;;;;;4998594;28;7241;-71
2023/03/30 13:33:18;;;;;;;;;;;;;;;;;;4996600;28;7845;-71
2023/03/30 13:48:58;;;;;;;;;;;;;;;;;;5015701;28;7259;-71
2023/03/30 13:51:26;;;;;;;;;;;;;;;;;;5018227;28;7207;-71
2023/03/30 13:57:08;;;;;;;;;;;;;;;;;;5017465;28;6691;-72
2023/03/30 14:00:09;;;;;;;;;;;;;;;;;;5018476;28;6911;-71
2023/03/30 14:23:44;;;;;;;;;;;;;;;;;;5017537;28;6705;-66
2023/03/30 14:29:18;;;;;;;;;;;;;;;;;;4997481;28;6925;-66
2023/03/30 14:31:57;;;;;;;;;;;;;;;;;;4997546;28;7230;-67
2023/03/30 14:34:24;;;;;;;;;;;;;;;;;;4980150;28;8380;-67
2023/03/30 14:36:50;;;;;;;;;;;;;;;;;;4997147;28;7036;-67
2023/03/30 14:42:21;;;;;;;;;;;;;;;;;;4996661;28;6714;-67
2023/03/30 14:44:49;;;;;;;;;;;;;;;;;;4979132;28;7127;-67
2023/03/30 14:50:18;;;;;;;;;;;;;;;;;;4977510;28;6723;-67
2023/03/30 14:56:13;;;;;;;;;;;;;;;;;;4977342;28;7022;-68
2023/03/30 14:58:39;;;;;;;;;;;;;;;;;;4980203;28;6824;-67
2023/03/30 15:01:40;;;;;;;;;;;;;;;;;;4996835;28;7417;-68
2023/03/30 15:04:16;;;;;;;;;;;;;;;;;;4996467;28;8707;-67
2023/03/30 15:06:44;;;;;;;;;;;;;;;;;;4996793;28;7062;-68
2023/03/30 15:09:45;;;;;;;;;;;;;;;;;;4996736;28;6945;-68
2023/03/30 15:12:31;;;;;;;;;;;;;;;;;;4996513;28;7377;-68
2023/03/30 15:21:42;;;;;;;;;;;;;;;;;;4995728;28;6712;-67
2023/03/30 15:24:12;;;;;;;;;;;;;;;;;;4977658;28;7063;-67
2023/03/30 15:26:44;;;;;;;;;;;;;;;;;;4977761;28;7237;-67
2023/03/30 15:38:40;;;;;;;;;;;;;;;;;;4976428;28;6908;-67
2023/03/30 15:41:11;;;;;;;;;;;;;;;;;;4976660;28;7399;-67
2023/03/30 15:44:06;;;;;;;;;;;;;;;;;;4977965;28;7197;-67
2023/03/30 15:46:32;;;;;;;;;;;;;;;;;;4995620;28;6996;-66
2023/03/30 15:48:58;;;;;;;;;;;;;;;;;;4995318;28;7146;-67
2023/03/30 15:51:24;;;;;;;;;;;;;;;;;;4996179;28;7179;-67
2023/03/30 15:53:53;;;;;;;;;;;;;;;;;;4995706;28;7203;-66
2023/03/30 15:56:26;;;;;;;;;;;;;;;;;;4996157;28;7133;-67
2023/03/30 15:58:52;;;;;;;;;;;;;;;;;;4995785;28;7190;-67
2023/03/30 16:01:41;;;;;;;;;;;;;;;;;;4991754;28;7195;-67
2023/03/30 16:04:06;;;;;;;;;;;;;;;;;;4995818;28;7233;-67
2023/03/30 16:06:32;;;;;;;;;;;;;;;;;;4993925;28;7025;-67
2023/03/30 16:12:18;;;;;;;;;;;;;;;;;;4976021;28;6984;-68
2023/03/30 16:14:45;;;;;;;;;;;;;;;;;;4976371;28;7166;-67
2023/03/30 16:17:14;;;;;;;;;;;;;;;;;;4989047;28;7098;-67
2023/03/30 16:19:42;;;;;;;;;;;;;;;;;;4995353;28;6929;-67
2023/03/30 16:22:09;;;;;;;;;;;;;;;;;;4995291;28;7211;-68
2023/03/30 16:24:35;;;;;;;;;;;;;;;;;;4995848;28;6949;-68
2023/03/30 16:27:00;;;;;;;;;;;;;;;;;;4995184;28;8350;-67
2023/03/30 16:29:26;;;;;;;;;;;;;;;;;;4995502;28;7186;-68
2023/03/30 16:31:52;;;;;;;;;;;;;;;;;;4995249;28;6934;-67
2023/03/30 16:34:24;;;;;;;;;;;;;;;;;;4995307;28;7192;-67
2023/03/30 16:36:51;;;;;;;;;;;;;;;;;;4995419;28;7361;-67
2023/03/30 16:39:41;;;;;;;;;;;;;;;;;;4994916;28;7049;-67
2023/03/30 16:42:07;;;;;;;;;;;;;;;;;;4995346;28;6815;-67
2023/03/30 16:44:32;;;;;;;;;;;;;;;;;;4996069;28;7241;-67
2023/03/30 16:50:01;;;;;;;;;;;;;;;;;;4995007;28;6934;-68
2023/03/30 16:55:38;;;;;;;;;;;;;;;;;;4995381;28;6866;-67
2023/03/30 17:04:09;;;;;;;;;;;;;;;;;;4998867;28;6685;-67
2023/03/30 17:06:43;;;;;;;;;;;;;;;;;;4999008;28;7122;-67
2023/03/30 17:09:11;;;;;;;;;;;;;;;;;;4998976;28;6977;-67
2023/03/30 17:11:37;;;;;;;;;;;;;;;;;;4999325;28;7179;-67
2023/03/30 17:20:20;;;;;;;;;;;;;;;;;;4997894;28;6750;-71
2023/03/30 17:22:52;;;;;;;;;;;;;;;;;;4998494;28;8219;-71
2023/03/30 17:25:25;;;;;;;;;;;;;;;;;;4998834;28;6950;-72
2023/03/30 17:30:41;;;;;;;;;;;;;;;;;;4999318;28;6940;-72
2023/03/30 17:33:42;;;;;;;;;;;;;;;;;;4998186;28;7179;-72
2023/03/30 17:36:13;;;;;;;;;;;;;;;;;;4998492;28;7302;-71
2023/03/30 17:38:40;;;;;;;;;;;;;;;;;;4998866;28;7279;-68
2023/03/30 17:41:20;;;;;;;;;;;;;;;;;;4997974;28;7038;-71
2023/03/30 17:43:46;;;;;;;;;;;;;;;;;;4998295;28;6954;-71
2023/03/30 17:46:13;;;;;;;;;;;;;;;;;;4980832;28;8407;-71
2023/03/30 17:49:04;;;;;;;;;;;;;;;;;;4997943;28;6943;-71
2023/03/30 17:51:30;;;;;;;;;;;;;;;;;;4997852;28;7198;-71
2023/03/30 17:54:26;;;;;;;;;;;;;;;;;;4998136;28;7205;-71
2023/03/30 17:56:52;;;;;;;;;;;;;;;;;;4998090;28;7238;-71
2023/03/30 17:59:19;;;;;;;;;;;;;;;;;;4998683;28;7336;-72
2023/03/30 18:01:59;;;;;;;;;;;;;;;;;;4997803;28;6976;-72
2023/03/30 18:04:25;;;;;;;;;;;;;;;;;;4997739;28;7336;-72
2023/03/30 18:06:51;;;;;;;;;;;;;;;;;;4997895;28;7167;-72
2023/03/30 18:09:17;;;;;;;;;;;;;;;;;;4997798;28;6942;-67
2023/03/30 18:11:43;;;;;;;;;;;;;;;;;;4997560;28;7161;-67
2023/03/30 18:14:08;;;;;;;;;;;;;;;;;;4997220;28;7349;-67
2023/03/30 18:16:39;;;;;;;;;;;;;;;;;;4997477;28;7082;-67
2023/03/30 18:19:04;;;;;;;;;;;;;;;;;;4997910;28;7483;-67
2023/03/30 18:21:37;;;;;;;;;;;;;;;;;;4997475;28;6936;-67
2023/03/30 18:24:02;;;;;;;;;;;;;;;;;;4997648;28;7396;-71
2023/03/30 18:29:32;;;;;;;;;;;;;;;;;;4997137;28;6988;-71
2023/03/30 18:38:20;;;;;;;;;;;;;;;;;;4997032;28;6947;-71
2023/03/30 18:40:52;;;;;;;;;;;;;;;;;;4997982;28;6979;-71
2023/03/30 18:46:21;;;;;;;;;;;;;;;;;;4997386;28;6688;-71
2023/03/30 18:48:54;;;;;;;;;;;;;;;;;;4995568;28;7210;-71
2023/03/30 18:51:20;;;;;;;;;;;;;;;;;;4995597;28;7060;-71
2023/03/30 18:57:20;;;;;;;;;;;;;;;;;;4996809;28;6933;-71
2023/03/30 19:12:01;;;;;;;;;;;;;;;;;;5071501;28;6627;-66
2023/03/30 19:14:30;;;;;;;;;;;;;;;;;;5049704;28;7197;-70
2023/03/30 19:16:56;;;;;;;;;;;;;;;;;;5036354;28;6935;-70
2023/03/30 19:19:22;;;;;;;;;;;;;;;;;;5037765;28;9510;-70
2023/03/30 19:22:02;;;;;;;;;;;;;;;;;;5042409;28;6916;-66
2023/03/30 19:24:28;;;;;;;;;;;;;;;;;;5036342;28;7393;-66
2023/03/30 19:27:04;;;;;;;;;;;;;;;;;;5034237;28;7080;-65
2023/03/30 19:29:30;;;;;;;;;;;;;;;;;;5051273;28;7111;-66
2023/03/30 19:32:12;;;;;;;;;;;;;;;;;;5051436;28;7067;-65
2023/03/30 19:34:38;;;;;;;;;;;;;;;;;;5045711;28;7280;-65
2023/03/30 19:37:05;;;;;;;;;;;;;;;;;;5041896;28;7036;-65
2023/03/30 19:39:31;;;;;;;;;;;;;;;;;;5044247;28;7149;-65
2023/03/30 19:41:56;;;;;;;;;;;;;;;;;;5051097;28;7103;-66
2023/03/30 19:44:22;;;;;;;;;;;;;;;;;;5051091;28;7163;-66
2023/03/30 19:46:48;;;;;;;;;;;;;;;;;;5034654;28;7792;-65
2023/03/30 19:49:13;;;;;;;;;;;;;;;;;;5037457;28;7167;-65
2023/03/30 19:51:39;;;;;;;;;;;;;;;;;;5048579;28;7087;-65
2023/03/30 19:54:05;;;;;;;;;;;;;;;;;;5051121;28;7749;-65
2023/03/30 19:56:37;;;;;;;;;;;;;;;;;;5050750;28;7057;-65
2023/03/30 19:59:03;;;;;;;;;;;;;;;;;;5050689;28;6999;-65
2023/03/30 20:01:29;;;;;;;;;;;;;;;;;;5051088;28;7138;-65
2023/03/30 20:03:54;;;;;;;;;;;;;;;;;;5050958;28;7081;-65
2023/03/30 20:06:20;;;;;;;;;;;;;;;;;;5048859;28;7077;-65
2023/03/30 20:09:07;;;;;;;;;;;;;;;;;;5044772;28;8242;-65
2023/03/30 20:11:46;;;;;;;;;;;;;;;;;;5045380;28;7128;-69
2023/03/30 20:14:14;;;;;;;;;;;;;;;;;;5037481;28;6974;-69
2023/03/30 20:16:39;;;;;;;;;;;;;;;;;;5037350;28;7147;-72
2023/03/30 20:25:15;;;;;;;;;;;;;;;;;;5037224;28;7023;-70
2023/03/30 20:27:41;;;;;;;;;;;;;;;;;;5036888;28;7041;-70
2023/03/30 20:30:07;;;;;;;;;;;;;;;;;;5037307;28;7086;-70
2023/03/30 20:32:33;;;;;;;;;;;;;;;;;;5037175;28;7133;-70
2023/03/30 20:35:00;;;;;;;;;;;;;;;;;;5037146;28;7100;-70
2023/03/30 20:40:17;;;;;;;;;;;;;;;;;;5037464;28;7269;-65
2023/03/30 20:43:01;;;;;;;;;;;;;;;;;;5037138;28;7377;-65
2023/03/30 20:45:28;;;;;;;;;;;;;;;;;;5036827;28;7153;-65
2023/03/30 20:47:53;;;;;;;;;;;;;;;;;;5036970;28;6919;-65
2023/03/30 20:50:19;;;;;;;;;;;;;;;;;;5036816;28;7119;-65
2023/03/30 20:52:45;;;;;;;;;;;;;;;;;;5036913;28;7289;-65
2023/03/30 20:58:27;;;;;;;;;;;;;;;;;;5036506;28;6674;-66
2023/03/30 21:00:56;;;;;;;;;;;;;;;;;;5036559;28;7134;-65
2023/03/30 21:03:30;;;;;;;;;;;;;;;;;;5036493;28;7084;-65
2023/03/30 21:06:00;;;;;;;;;;;;;;;;;;5036653;28;7238;-65
2023/03/30 21:08:26;;;;;;;;;;;;;;;;;;5036557;28;7274;-65
2023/03/30 21:11:13;;;;;;;;;;;;;;;;;;5036610;28;7336;-65
2023/03/30 21:13:39;;;;;;;;;;;;;;;;;;5036466;28;7159;-65
2023/03/30 21:22:11;;;;;;;;;;;;;;;;;;5036044;28;6847;-66
2023/03/30 21:24:36;;;;;;;;;;;;;;;;;;5035036;28;7368;-69
2023/03/30 21:30:14;;;;;;;;;;;;;;;;;;5035843;28;7034;-70
2023/03/30 21:32:39;;;;;;;;;;;;;;;;;;5036085;28;7376;-70
2023/03/30 21:35:05;;;;;;;;;;;;;;;;;;5035960;28;7085;-66
2023/03/30 21:38:06;;;;;;;;;;;;;;;;;;5035896;28;7346;-66
2023/03/30 21:40:32;;;;;;;;;;;;;;;;;;5035752;28;7194;-65
2023/03/30 21:43:22;;;;;;;;;;;;;;;;;;5035824;28;7104;-66
2023/03/30 21:45:56;;;;;;;;;;;;;;;;;;5035877;28;7218;-66
2023/03/30 21:48:23;;;;;;;;;;;;;;;;;;5035805;28;7218;-66
2023/03/30 21:56:54;;;;;;;;;;;;;;;;;;5035122;28;6695;-66
2023/03/30 21:59:20;;;;;;;;;;;;;;;;;;5035237;28;6971;-66
2023/03/30 22:01:46;;;;;;;;;;;;;;;;;;5035516;28;7389;-66
2023/03/30 22:13:07;;;;;;;;;;;;;;;;;;5036257;28;6998;-66
2023/03/30 22:15:33;;;;;;;;;;;;;;;;;;5035105;28;6933;-66
2023/03/30 22:18:00;;;;;;;;;;;;;;;;;;5035180;28;7002;-66
2023/03/30 22:20:30;;;;;;;;;;;;;;;;;;5035105;28;7496;-65
2023/03/30 22:25:55;;;;;;;;;;;;;;;;;;5035236;28;7016;-65
2023/03/30 22:28:24;;;;;;;;;;;;;;;;;;5034760;28;7413;-65
2023/03/30 22:30:50;;;;;;;;;;;;;;;;;;5034977;28;7040;-66
2023/03/30 22:33:16;;;;;;;;;;;;;;;;;;5035038;28;7043;-65
2023/03/30 22:35:51;;;;;;;;;;;;;;;;;;5033988;28;7164;-65
2023/03/30 22:38:16;;;;;;;;;;;;;;;;;;5034819;28;6817;-66
2023/03/30 22:41:17;;;;;;;;;;;;;;;;;;5034894;28;7151;-66
2023/03/30 22:43:45;;;;;;;;;;;;;;;;;;5034833;28;7089;-66
2023/03/30 22:46:32;;;;;;;;;;;;;;;;;;5034927;28;7035;-66
2023/03/30 22:48:58;;;;;;;;;;;;;;;;;;5034765;28;7115;-66
2023/03/30 22:54:27;;;;;;;;;;;;;;;;;;5034525;28;6919;-65